createdAt,value
2022-11-12T00:00:02.625Z,197.16
2022-11-12T00:05:02.487Z,154.499
2022-11-12T00:10:02.553Z,155.572
2022-11-12T00:15:02.510Z,154.876
2022-11-12T00:20:02.541Z,181.83
2022-11-12T00:25:00.742Z,190.321
2022-11-12T00:30:00.765Z,281.401
2022-11-12T00:35:02.698Z,298.553
2022-11-12T00:40:00.813Z,291.498
2022-11-12T00:45:00.918Z,227.007
2022-11-12T00:50:00.854Z,177.697
2022-11-12T00:55:00.909Z,170.887
2022-11-12T01:00:00.890Z,153.70600000000002
2022-11-12T01:05:00.991Z,153.794
2022-11-12T01:10:00.850Z,153.359
2022-11-12T01:15:00.821Z,246.112
2022-11-12T01:20:00.855Z,269.504
2022-11-12T01:25:00.817Z,264.478
2022-11-12T01:30:00.852Z,199.447
2022-11-12T01:35:00.818Z,155.205
2022-11-12T01:40:00.814Z,175.052
2022-11-12T01:45:00.890Z,179.17000000000002
2022-11-12T01:50:01.208Z,181.246
2022-11-12T01:55:00.991Z,180.639
2022-11-12T02:00:00.875Z,274.279
2022-11-12T02:05:00.923Z,270.593
2022-11-12T02:10:00.903Z,264.79
2022-11-12T02:15:00.875Z,2094.76
2022-11-12T02:20:00.911Z,2359.003
2022-11-12T02:25:00.925Z,2594.627
2022-11-12T02:30:00.864Z,2516.886
2022-11-12T02:35:01.037Z,154.752
2022-11-12T02:40:01.020Z,186.779
2022-11-12T02:45:01.063Z,294.746
2022-11-12T02:50:00.888Z,303.48
2022-11-12T02:55:00.881Z,290.599
2022-11-12T03:00:01.104Z,230.049
2022-11-12T03:05:00.971Z,176.90200000000002
2022-11-12T03:10:00.921Z,176.306
2022-11-12T03:15:00.956Z,170.953
2022-11-12T03:20:01.017Z,151.612
2022-11-12T03:25:01.066Z,151.735
2022-11-12T03:30:01.081Z,240.169
2022-11-12T03:35:00.894Z,268.56
2022-11-12T03:40:00.919Z,262.421
2022-11-12T03:45:00.940Z,188.41400000000002
2022-11-12T03:50:00.974Z,151.272
2022-11-12T03:55:00.939Z,156.983
2022-11-12T04:00:00.957Z,189.238
2022-11-12T04:05:00.969Z,194.579
2022-11-12T04:10:01.038Z,193.505
2022-11-12T04:15:00.969Z,287.439
2022-11-12T04:20:01.066Z,303.19
2022-11-12T04:25:01.117Z,281.295
2022-11-12T04:30:00.975Z,219.917
2022-11-12T04:35:01.021Z,169.673
2022-11-12T04:40:01.006Z,169.741
2022-11-12T04:45:01.038Z,169.85
2022-11-12T04:50:01.003Z,169.999
2022-11-12T04:55:01.156Z,169.862
2022-11-12T05:00:01.005Z,1010.895
2022-11-12T05:05:00.991Z,2526.333
2022-11-12T05:10:01.114Z,2529.372
2022-11-12T05:15:01.157Z,2953.52
2022-11-12T05:20:01.159Z,738.932
2022-11-12T05:25:01.004Z,184.644
2022-11-12T05:30:01.021Z,183.799
2022-11-12T05:35:01.020Z,188.919
2022-11-12T05:40:01.140Z,165.702
2022-11-12T05:45:01.097Z,244.085
2022-11-12T05:50:01.088Z,301.069
2022-11-12T05:55:01.038Z,287.33
2022-11-12T06:00:01.020Z,221.145
2022-11-12T06:05:01.074Z,163.406
2022-11-12T06:10:01.186Z,183.214
2022-11-12T06:15:01.295Z,197.567
2022-11-12T06:20:01.061Z,186.226
2022-11-12T06:25:01.115Z,190.469
2022-11-12T06:30:01.055Z,257.206
2022-11-12T06:35:01.103Z,300.72700000000003
2022-11-12T06:40:01.100Z,294.595
2022-11-12T06:45:01.123Z,222.15800000000002
2022-11-12T06:50:01.131Z,160.079
2022-11-12T06:55:01.080Z,159.945
2022-11-12T07:00:01.182Z,160.434
2022-11-12T07:05:01.252Z,173.047
2022-11-12T07:10:01.283Z,173.07500000000002
2022-11-12T07:15:01.221Z,247.618
2022-11-12T07:20:03.767Z,304.36
2022-11-12T07:25:01.136Z,318.985
2022-11-12T07:30:01.160Z,361.607
2022-11-12T07:35:01.203Z,338.027
2022-11-12T07:40:01.103Z,341.06600000000003
2022-11-12T07:45:01.153Z,338.639
2022-11-12T07:50:01.346Z,335.492
2022-11-12T07:55:01.401Z,335.531
2022-11-12T08:00:01.310Z,409.411
2022-11-12T08:05:01.144Z,426.784
2022-11-12T08:10:01.198Z,422.33
2022-11-12T08:15:01.166Z,842.741
2022-11-12T08:20:01.249Z,2517.762
2022-11-12T08:25:01.334Z,2518.2400000000002
2022-11-12T08:30:01.195Z,3003.202
2022-11-12T08:35:01.185Z,1751.241
2022-11-12T08:40:01.303Z,294.558
2022-11-12T08:45:01.382Z,337.553
2022-11-12T08:50:01.374Z,440.53700000000003
2022-11-12T08:55:01.212Z,431.726
2022-11-12T09:00:01.218Z,423.345
2022-11-12T09:05:01.257Z,314.047
2022-11-12T09:10:01.207Z,292.50100000000003
2022-11-12T09:15:23.240Z,291.451
2022-11-12T09:20:01.271Z,574.864
2022-11-12T09:25:01.283Z,1722.976
2022-11-12T09:30:01.408Z,615.85
2022-11-12T09:35:01.412Z,687.1750000000001
2022-11-12T09:40:02.656Z,677.506
2022-11-12T09:45:01.267Z,715.951
2022-11-12T09:50:01.236Z,1414.595
2022-11-12T09:55:01.260Z,5220.363
2022-11-12T10:00:01.371Z,5138.107
2022-11-12T10:05:01.323Z,5140.393
2022-11-12T10:10:01.278Z,5117.692
2022-11-12T10:15:01.238Z,5127.188
2022-11-12T10:20:01.408Z,5295.095
2022-11-12T10:25:01.408Z,5281.356
2022-11-12T10:30:01.466Z,5267.292
2022-11-12T10:35:01.266Z,5327.6140000000005
2022-11-12T10:40:01.307Z,5127.9310000000005
2022-11-12T10:45:01.366Z,5199.592000000001
2022-11-12T10:50:01.351Z,5221.928
2022-11-12T10:55:01.494Z,2817.616
2022-11-12T11:00:01.330Z,5501.841
2022-11-12T11:05:01.336Z,5203.134
2022-11-12T11:10:01.442Z,939.463
2022-11-12T11:15:01.558Z,1171.0520000000001
2022-11-12T11:20:01.608Z,947.322
2022-11-12T11:25:01.321Z,1114.814
2022-11-12T11:30:01.330Z,433.05400000000003
2022-11-12T11:35:01.333Z,431.733
2022-11-12T11:40:01.367Z,1226.076
2022-11-12T11:45:01.368Z,3199.5950000000003
2022-11-12T11:50:01.442Z,2384.504
2022-11-12T11:55:01.674Z,540.903
2022-11-12T12:00:01.538Z,566.945
2022-11-12T12:05:01.372Z,2067.203
2022-11-12T12:10:04.918Z,2613.163
2022-11-12T12:15:01.538Z,2637.9610000000002
2022-11-12T12:20:01.467Z,2536.752
2022-11-12T12:25:01.443Z,2570.379
2022-11-12T12:30:01.467Z,4969.67
2022-11-12T12:35:01.552Z,5395.6410000000005
2022-11-12T12:40:01.566Z,4995.841
2022-11-12T12:45:01.541Z,1456.9270000000001
2022-11-12T12:50:01.421Z,440.395
2022-11-12T12:55:01.434Z,508.237
2022-11-12T13:00:01.400Z,5197.272
2022-11-12T13:05:01.428Z,9305.73
2022-11-12T13:15:01.621Z,7187.777
2022-11-12T13:20:01.678Z,8188.122
2022-11-12T13:25:01.495Z,9198.007
2022-11-12T13:30:01.454Z,10904.575
2022-11-12T13:35:01.461Z,9581.606
2022-11-12T13:40:01.462Z,7827.693
2022-11-12T13:45:01.478Z,7873.78
2022-11-12T13:50:01.454Z,8210.801
2022-11-12T13:55:01.643Z,7762.147
2022-11-12T14:00:01.760Z,7798.284000000001
2022-11-12T14:05:01.468Z,3311.732
2022-11-12T14:10:01.499Z,442.747
2022-11-12T14:15:01.516Z,435.379
2022-11-12T14:20:01.492Z,334.071
2022-11-12T14:25:01.531Z,413.779
2022-11-12T14:30:01.670Z,525.309
2022-11-12T14:35:01.717Z,1018.066
2022-11-12T14:40:01.493Z,917.04
2022-11-12T14:45:01.515Z,3473.967
2022-11-12T14:50:01.547Z,3240.3160000000003
2022-11-12T14:55:01.540Z,1039.123
2022-11-12T15:00:01.559Z,1033.442
2022-11-12T15:05:01.604Z,995.283
2022-11-12T15:10:01.844Z,1038.953
2022-11-12T15:15:01.538Z,1069.231
2022-11-12T15:20:01.647Z,1098.035
2022-11-12T15:25:01.596Z,1105.345
2022-11-12T15:30:01.635Z,1150.7640000000001
2022-11-12T15:35:01.545Z,1304.325
2022-11-12T15:40:01.632Z,1310.126
2022-11-12T15:45:01.624Z,3266.12
2022-11-12T15:50:01.704Z,2829.419
2022-11-12T15:55:01.576Z,1196.028
2022-11-12T16:00:06.512Z,2768.957
2022-11-12T16:05:01.579Z,1854.924
2022-11-12T16:10:01.620Z,2169.154
2022-11-12T16:15:01.628Z,2006.291
2022-11-12T16:20:01.679Z,2424.79
2022-11-12T16:25:01.632Z,2016.77
2022-11-12T16:30:01.820Z,1586.546
2022-11-12T16:35:01.828Z,1070.002
2022-11-12T16:40:01.627Z,424.473
2022-11-12T16:45:01.643Z,411.288
2022-11-12T16:50:01.662Z,426.878
2022-11-12T16:55:04.479Z,482.343
2022-11-12T17:00:01.646Z,523.827
2022-11-12T17:05:01.638Z,570.025
2022-11-12T17:10:01.745Z,539.114
2022-11-12T17:15:01.944Z,543.3870000000001
2022-11-12T17:20:01.662Z,438.584
2022-11-12T17:25:01.639Z,399.579
2022-11-12T17:30:01.668Z,390.636
2022-11-12T17:35:01.671Z,405.326
2022-11-12T17:40:01.741Z,383.62
2022-11-12T17:45:01.701Z,2408.397
2022-11-12T17:50:01.681Z,4227.349
2022-11-12T17:55:01.813Z,5858.008
2022-11-12T18:00:01.827Z,5268.295
2022-11-12T18:05:01.708Z,6221.794
2022-11-12T18:10:01.695Z,5564.579
2022-11-12T18:15:01.754Z,5461.5650000000005
2022-11-12T18:20:01.691Z,4298.371
2022-11-12T18:25:01.730Z,1269.353
2022-11-12T18:30:01.714Z,1061.011
2022-11-12T18:35:01.701Z,691.871
2022-11-12T18:40:01.809Z,742.9540000000001
2022-11-12T18:45:01.969Z,650.639
2022-11-12T18:50:07.261Z,688.093
2022-11-12T18:55:01.708Z,758.389
2022-11-12T19:00:01.772Z,543.796
2022-11-12T19:05:01.743Z,519.835
2022-11-12T19:10:01.743Z,532.3050000000001
2022-11-12T19:15:01.739Z,617.894
2022-11-12T19:20:01.777Z,618.913
2022-11-12T19:25:01.910Z,623.989
2022-11-12T19:30:03.389Z,543.1850000000001
2022-11-12T19:35:01.868Z,4075.108
2022-11-12T19:40:01.760Z,8246.802
2022-11-12T19:45:01.890Z,8173.6990000000005
2022-11-12T19:50:01.847Z,8180.286
2022-11-12T19:55:01.746Z,7986.908
2022-11-12T20:00:01.745Z,8190.066
2022-11-12T20:05:01.889Z,8162.477
2022-11-12T20:10:01.929Z,8097.454
2022-11-12T20:15:01.968Z,8239.67
2022-11-12T20:20:01.764Z,8540.337
2022-11-12T20:25:01.751Z,8170.4980000000005
2022-11-12T20:30:01.838Z,8439.76
2022-11-12T20:35:01.813Z,8869.187
2022-11-12T20:40:01.821Z,9624.608
2022-11-12T20:45:01.960Z,11377.08
2022-11-12T20:50:02.165Z,11798.767
2022-11-12T20:55:02.034Z,12110.04
2022-11-12T21:00:01.816Z,10419.065
2022-11-12T21:05:01.858Z,8953.297
2022-11-12T21:10:01.805Z,8595.43
2022-11-12T21:15:01.907Z,8940.875
2022-11-12T21:20:01.890Z,9033.939
2022-11-12T21:25:01.989Z,8678.285
2022-11-12T21:30:01.846Z,8739.281
2022-11-12T21:35:01.854Z,8958.351
2022-11-12T21:40:01.825Z,8448.62
2022-11-12T21:45:02.052Z,8202.184
2022-11-12T21:50:01.887Z,7884.872
2022-11-12T21:55:01.945Z,8204.445
2022-11-12T22:00:19.813Z,8339.957
2022-11-12T22:05:01.866Z,8295.797
2022-11-12T22:10:01.847Z,7921.642
2022-11-12T22:15:01.935Z,8168.51
2022-11-12T22:20:01.950Z,8397.902
2022-11-12T22:25:01.956Z,8307.364
2022-11-12T22:30:02.034Z,7238.744000000001
2022-11-12T22:35:01.934Z,6556.337
2022-11-12T22:40:01.920Z,6260.186
2022-11-12T22:45:01.978Z,5666.649
2022-11-12T22:50:01.994Z,4785.5960000000005
2022-11-12T22:55:01.973Z,4604.228
2022-11-12T23:00:02.084Z,4493.328
2022-11-12T23:05:02.198Z,3359.3940000000002
2022-11-12T23:10:01.932Z,227.494
2022-11-12T23:15:01.957Z,503.181
2022-11-12T23:20:01.962Z,639.982
2022-11-12T23:25:01.972Z,223.017
2022-11-12T23:30:02.126Z,305.721
2022-11-12T23:35:02.101Z,710.794
2022-11-12T23:40:01.946Z,487.79900000000004
2022-11-12T23:45:01.986Z,294.058
2022-11-12T23:50:02.080Z,566.77
2022-11-12T23:55:01.999Z,458.575
